createdAt,value
2024-03-26T00:06:53.962Z,984.43
2024-03-26T00:16:56.118Z,984.24
2024-03-26T00:26:58.367Z,984.02
2024-03-26T00:37:00.797Z,983.83
2024-03-26T00:47:03.359Z,983.8
2024-03-26T00:57:05.997Z,983.75
2024-03-26T01:07:08.148Z,983.71
2024-03-26T01:17:10.203Z,983.68
2024-03-26T01:27:12.146Z,983.67
2024-03-26T01:37:13.705Z,983.64
2024-03-26T01:47:15.961Z,983.57
2024-03-26T01:57:18.041Z,983.43
2024-03-26T02:07:20.377Z,983.16
2024-03-26T02:17:22.232Z,983.11
2024-03-26T02:27:24.792Z,983.01
2024-03-26T02:37:26.734Z,983.03
2024-03-26T02:47:29.112Z,982.89
2024-03-26T02:57:31.187Z,982.83
2024-03-26T03:07:33.438Z,982.7
2024-03-26T03:17:35.846Z,982.53
2024-03-26T03:27:38.228Z,982.47
2024-03-26T03:37:40.098Z,982.38
2024-03-26T03:47:41.855Z,982.24
2024-03-26T03:57:44.175Z,982.09
2024-03-26T04:07:54.174Z,981.99
2024-03-26T04:17:56.854Z,981.94
2024-03-26T04:27:58.730Z,981.74
2024-03-26T04:38:00.971Z,981.65
2024-03-26T04:48:03.523Z,981.66
2024-03-26T04:58:05.727Z,981.59
2024-03-26T05:08:08.131Z,981.46
2024-03-26T05:18:10.391Z,981.43
2024-03-26T05:28:12.338Z,981.27
2024-03-26T05:38:14.998Z,981.15
2024-03-26T05:48:17.526Z,981.21
2024-03-26T05:58:19.697Z,981.02
2024-03-26T06:08:21.876Z,980.89
2024-03-26T06:18:28.236Z,980.72
2024-03-26T06:28:30.618Z,980.62
2024-03-26T06:38:32.336Z,980.51
2024-03-26T06:48:34.025Z,980.41
2024-03-26T06:58:36.769Z,980.43
2024-03-26T07:08:39.210Z,980.18
2024-03-26T07:18:49.205Z,980.19
2024-03-26T07:28:54.906Z,980.18
2024-03-26T07:38:57.605Z,979.91
2024-03-26T07:49:00.162Z,979.93
2024-03-26T07:59:02.739Z,979.94
2024-03-26T08:09:04.756Z,980.02
2024-03-26T08:19:07.187Z,979.93
2024-03-26T08:29:09.766Z,979.79
2024-03-26T08:39:12.273Z,979.7
2024-03-26T08:49:14.950Z,979.53
2024-03-26T08:59:17.162Z,979.36
2024-03-26T09:09:19.694Z,979.15
2024-03-26T09:19:21.981Z,979.03
2024-03-26T09:29:24.642Z,978.94
2024-03-26T09:39:26.465Z,979.09
2024-03-26T09:49:28.761Z,978.81
2024-03-26T09:59:31.480Z,978.52
2024-03-26T10:09:34.108Z,978.46
2024-03-26T10:19:37.137Z,978.38
2024-03-26T10:29:47.189Z,978.15
2024-03-26T10:39:50.084Z,977.98
2024-03-26T10:49:52.469Z,977.72
2024-03-26T10:59:54.974Z,977.47
2024-03-26T11:09:57.612Z,977.55
2024-03-26T11:20:00.614Z,977.38
2024-03-26T11:30:03.533Z,977.22
2024-03-26T11:40:06.080Z,977.17
2024-03-26T11:50:09.000Z,977.14
2024-03-26T12:00:11.158Z,976.94
2024-03-26T12:10:22.799Z,977.03
2024-03-26T12:20:24.316Z,977.01
2024-03-26T12:30:27.397Z,976.78
2024-03-26T12:40:29.507Z,976.59
2024-03-26T12:50:31.841Z,976.5
2024-03-26T13:00:34.287Z,976.43
2024-03-26T13:10:36.395Z,976.34
2024-03-26T13:20:38.849Z,976.22
2024-03-26T13:30:46.211Z,976.04
2024-03-26T13:41:00.402Z,975.87
2024-03-26T13:51:03.097Z,975.69
2024-03-26T14:01:06.278Z,975.59
2024-03-26T14:11:08.596Z,975.4
2024-03-26T14:21:11.236Z,975.34
2024-03-26T14:31:14.205Z,975.2
2024-03-26T14:41:16.832Z,974.89
2024-03-26T14:51:19.287Z,974.78
2024-03-26T15:01:22.169Z,974.7
2024-03-26T15:11:24.747Z,974.67
2024-03-26T15:21:27.046Z,974.68
2024-03-26T15:31:29.762Z,974.52
2024-03-26T15:41:32.490Z,974.34
2024-03-26T15:51:34.612Z,974.17
2024-03-26T16:01:36.529Z,973.91
2024-03-26T16:11:38.397Z,973.84
2024-03-26T16:21:40.330Z,973.83
2024-03-26T16:31:42.961Z,973.79
2024-03-26T16:41:44.591Z,973.74
2024-03-26T16:51:46.881Z,973.74
2024-03-26T17:01:49.150Z,973.56
2024-03-26T17:11:51.334Z,973.46
2024-03-26T17:21:53.590Z,973.36
2024-03-26T17:31:56.068Z,973.29
2024-03-26T17:41:58.748Z,973.31
2024-03-26T17:52:01.434Z,973.38
2024-03-26T18:02:03.741Z,973.36
2024-03-26T18:12:06.171Z,973.2
2024-03-26T18:22:07.850Z,973.12
2024-03-26T18:32:10.065Z,973.06
2024-03-26T18:42:12.214Z,973.12
2024-03-26T18:52:14.576Z,973.11
2024-03-26T19:02:16.890Z,973.11
2024-03-26T19:12:23.802Z,973.1
2024-03-26T19:22:26.041Z,973.07
2024-03-26T19:32:28.503Z,972.94
2024-03-26T19:42:30.417Z,972.83
2024-03-26T19:52:32.573Z,972.68
2024-03-26T20:02:34.984Z,972.72
2024-03-26T20:12:37.320Z,972.51
2024-03-26T20:22:39.637Z,972.36
2024-03-26T20:32:42.189Z,972.41
2024-03-26T20:42:44.614Z,972.38
2024-03-26T20:52:46.388Z,972.29
2024-03-26T21:02:48.425Z,972.22
2024-03-26T21:12:50.605Z,971.99
2024-03-26T21:22:52.849Z,971.94
2024-03-26T21:32:54.990Z,971.65
2024-03-26T21:42:57.453Z,971.59
2024-03-26T21:53:00.088Z,971.53
2024-03-26T22:03:02.491Z,971.36
2024-03-26T22:13:04.300Z,971.31
2024-03-26T22:23:06.866Z,971.23
2024-03-26T22:33:09.287Z,971.22
2024-03-26T22:43:11.763Z,971.31
2024-03-26T22:53:13.446Z,971.32
2024-03-26T23:03:15.486Z,971.3
2024-03-26T23:13:17.891Z,971.41
2024-03-26T23:23:19.993Z,971.27
2024-03-26T23:33:22.024Z,971.19
2024-03-26T23:43:24.435Z,971.06
2024-03-26T23:53:26.624Z,970.99
